sensor_id;sensor_type;location;lat;lon;timestamp;P1;durP1;ratioP1;P2;durP2;ratioP2
4519;SDS011;2272;49.226;8.108;2023-04-25T00:01:54;5.90;;;4.57;;
4519;SDS011;2272;49.226;8.108;2023-04-25T00:04:21;6.07;;;4.73;;
4519;SDS011;2272;49.226;8.108;2023-04-25T00:06:48;10.33;;;4.00;;
4519;SDS011;2272;49.226;8.108;2023-04-25T00:09:15;5.40;;;5.00;;
4519;SDS011;2272;49.226;8.108;2023-04-25T00:11:43;5.87;;;4.37;;
4519;SDS011;2272;49.226;8.108;2023-04-25T00:14:09;8.00;;;4.73;;
4519;SDS011;2272;49.226;8.108;2023-04-25T00:16:36;5.37;;;4.93;;
4519;SDS011;2272;49.226;8.108;2023-04-25T00:19:04;6.73;;;5.40;;
4519;SDS011;2272;49.226;8.108;2023-04-25T00:21:31;4.83;;;4.40;;
4519;SDS011;2272;49.226;8.108;2023-04-25T00:23:58;6.20;;;5.70;;
4519;SDS011;2272;49.226;8.108;2023-04-25T00:26:27;6.03;;;4.87;;
4519;SDS011;2272;49.226;8.108;2023-04-25T00:28:55;7.07;;;6.13;;
4519;SDS011;2272;49.226;8.108;2023-04-25T00:31:22;6.43;;;5.57;;
4519;SDS011;2272;49.226;8.108;2023-04-25T00:33:48;5.90;;;5.30;;
4519;SDS011;2272;49.226;8.108;2023-04-25T00:36:15;5.67;;;5.03;;
4519;SDS011;2272;49.226;8.108;2023-04-25T00:38:43;5.43;;;5.03;;
4519;SDS011;2272;49.226;8.108;2023-04-25T00:41:10;9.43;;;6.27;;
4519;SDS011;2272;49.226;8.108;2023-04-25T00:43:37;5.63;;;4.50;;
4519;SDS011;2272;49.226;8.108;2023-04-25T00:46:07;7.47;;;5.57;;
4519;SDS011;2272;49.226;8.108;2023-04-25T00:48:33;6.00;;;5.50;;
4519;SDS011;2272;49.226;8.108;2023-04-25T00:51:00;6.63;;;5.97;;
4519;SDS011;2272;49.226;8.108;2023-04-25T00:53:27;6.17;;;5.57;;
4519;SDS011;2272;49.226;8.108;2023-04-25T00:55:57;5.30;;;4.90;;
4519;SDS011;2272;49.226;8.108;2023-04-25T00:58:24;6.10;;;4.87;;
4519;SDS011;2272;49.226;8.108;2023-04-25T01:00:51;5.93;;;5.33;;
4519;SDS011;2272;49.226;8.108;2023-04-25T01:03:19;8.00;;;5.27;;
4519;SDS011;2272;49.226;8.108;2023-04-25T01:05:46;6.93;;;5.40;;
4519;SDS011;2272;49.226;8.108;2023-04-25T01:08:13;5.47;;;4.80;;
4519;SDS011;2272;49.226;8.108;2023-04-25T01:10:41;6.80;;;5.47;;
4519;SDS011;2272;49.226;8.108;2023-04-25T01:13:08;8.07;;;5.47;;
4519;SDS011;2272;49.226;8.108;2023-04-25T01:15:35;8.20;;;4.80;;
4519;SDS011;2272;49.226;8.108;2023-04-25T01:18:02;6.00;;;5.03;;
4519;SDS011;2272;49.226;8.108;2023-04-25T01:20:30;4.77;;;4.33;;
4519;SDS011;2272;49.226;8.108;2023-04-25T01:23:00;5.13;;;4.63;;
4519;SDS011;2272;49.226;8.108;2023-04-25T01:25:28;5.03;;;4.60;;
4519;SDS011;2272;49.226;8.108;2023-04-25T01:27:55;4.87;;;4.50;;
4519;SDS011;2272;49.226;8.108;2023-04-25T01:30:23;7.30;;;5.20;;
4519;SDS011;2272;49.226;8.108;2023-04-25T01:32:51;5.60;;;5.10;;
4519;SDS011;2272;49.226;8.108;2023-04-25T01:35:19;5.60;;;5.10;;
4519;SDS011;2272;49.226;8.108;2023-04-25T01:37:48;4.90;;;4.40;;
4519;SDS011;2272;49.226;8.108;2023-04-25T01:40:16;5.80;;;5.30;;
4519;SDS011;2272;49.226;8.108;2023-04-25T01:42:44;4.90;;;4.50;;
4519;SDS011;2272;49.226;8.108;2023-04-25T01:45:11;4.47;;;4.07;;
4519;SDS011;2272;49.226;8.108;2023-04-25T01:47:38;4.63;;;4.10;;
4519;SDS011;2272;49.226;8.108;2023-04-25T01:50:07;4.27;;;3.97;;
4519;SDS011;2272;49.226;8.108;2023-04-25T01:52:34;4.90;;;4.50;;
4519;SDS011;2272;49.226;8.108;2023-04-25T01:55:01;4.83;;;4.43;;
4519;SDS011;2272;49.226;8.108;2023-04-25T01:57:30;4.40;;;3.97;;
4519;SDS011;2272;49.226;8.108;2023-04-25T01:59:58;4.50;;;4.10;;
4519;SDS011;2272;49.226;8.108;2023-04-25T02:02:26;4.60;;;4.23;;
4519;SDS011;2272;49.226;8.108;2023-04-25T02:04:53;5.87;;;5.37;;
4519;SDS011;2272;49.226;8.108;2023-04-25T02:07:21;4.63;;;4.23;;
4519;SDS011;2272;49.226;8.108;2023-04-25T02:09:48;6.60;;;3.90;;
4519;SDS011;2272;49.226;8.108;2023-04-25T02:12:14;4.13;;;3.83;;
4519;SDS011;2272;49.226;8.108;2023-04-25T02:14:43;4.60;;;4.20;;
4519;SDS011;2272;49.226;8.108;2023-04-25T02:17:09;6.90;;;4.20;;
4519;SDS011;2272;49.226;8.108;2023-04-25T02:19:37;6.63;;;4.30;;
4519;SDS011;2272;49.226;8.108;2023-04-25T02:22:04;4.73;;;4.30;;
4519;SDS011;2272;49.226;8.108;2023-04-25T02:24:30;4.47;;;4.10;;
4519;SDS011;2272;49.226;8.108;2023-04-25T02:26:58;4.97;;;4.57;;
4519;SDS011;2272;49.226;8.108;2023-04-25T02:29:25;4.27;;;3.97;;
4519;SDS011;2272;49.226;8.108;2023-04-25T02:31:53;4.60;;;4.23;;
4519;SDS011;2272;49.226;8.108;2023-04-25T02:34:20;6.33;;;5.57;;
4519;SDS011;2272;49.226;8.108;2023-04-25T02:36:47;4.90;;;4.50;;
4519;SDS011;2272;49.226;8.108;2023-04-25T02:39:14;4.93;;;4.53;;
4519;SDS011;2272;49.226;8.108;2023-04-25T02:41:41;4.43;;;4.03;;
4519;SDS011;2272;49.226;8.108;2023-04-25T02:44:07;5.03;;;4.53;;
4519;SDS011;2272;49.226;8.108;2023-04-25T02:46:34;4.97;;;4.57;;
4519;SDS011;2272;49.226;8.108;2023-04-25T02:49:02;5.97;;;5.37;;
4519;SDS011;2272;49.226;8.108;2023-04-25T02:51:30;5.03;;;4.57;;
4519;SDS011;2272;49.226;8.108;2023-04-25T02:53:57;6.30;;;5.00;;
4519;SDS011;2272;49.226;8.108;2023-04-25T02:56:24;5.27;;;3.93;;
4519;SDS011;2272;49.226;8.108;2023-04-25T02:58:51;4.63;;;4.23;;
4519;SDS011;2272;49.226;8.108;2023-04-25T03:01:18;6.60;;;5.60;;
4519;SDS011;2272;49.226;8.108;2023-04-25T03:03:45;5.30;;;4.90;;
4519;SDS011;2272;49.226;8.108;2023-04-25T03:06:13;6.43;;;5.83;;
4519;SDS011;2272;49.226;8.108;2023-04-25T03:08:40;7.00;;;5.57;;
4519;SDS011;2272;49.226;8.108;2023-04-25T03:11:07;6.10;;;5.17;;
4519;SDS011;2272;49.226;8.108;2023-04-25T03:13:34;8.90;;;5.77;;
4519;SDS011;2272;49.226;8.108;2023-04-25T03:16:01;6.97;;;5.27;;
4519;SDS011;2272;49.226;8.108;2023-04-25T03:18:28;5.90;;;5.40;;
4519;SDS011;2272;49.226;8.108;2023-04-25T03:20:54;6.13;;;5.53;;
4519;SDS011;2272;49.226;8.108;2023-04-25T03:23:22;5.83;;;5.33;;
4519;SDS011;2272;49.226;8.108;2023-04-25T03:25:49;7.77;;;6.03;;
4519;SDS011;2272;49.226;8.108;2023-04-25T03:28:16;6.63;;;5.10;;
4519;SDS011;2272;49.226;8.108;2023-04-25T03:30:43;6.00;;;5.40;;
4519;SDS011;2272;49.226;8.108;2023-04-25T03:33:09;6.00;;;5.50;;
4519;SDS011;2272;49.226;8.108;2023-04-25T03:35:36;5.80;;;5.30;;
4519;SDS011;2272;49.226;8.108;2023-04-25T03:38:03;5.50;;;5.00;;
4519;SDS011;2272;49.226;8.108;2023-04-25T03:40:31;5.23;;;4.80;;
4519;SDS011;2272;49.226;8.108;2023-04-25T03:42:57;6.90;;;5.80;;
4519;SDS011;2272;49.226;8.108;2023-04-25T03:45:24;6.60;;;5.83;;
4519;SDS011;2272;49.226;8.108;2023-04-25T03:47:51;6.97;;;6.27;;
4519;SDS011;2272;49.226;8.108;2023-04-25T03:50:18;6.63;;;6.00;;
4519;SDS011;2272;49.226;8.108;2023-04-25T03:52:44;6.40;;;5.83;;
4519;SDS011;2272;49.226;8.108;2023-04-25T03:55:11;5.93;;;5.40;;
4519;SDS011;2272;49.226;8.108;2023-04-25T03:57:39;6.27;;;5.63;;
4519;SDS011;2272;49.226;8.108;2023-04-25T04:00:06;7.00;;;6.40;;
4519;SDS011;2272;49.226;8.108;2023-04-25T04:02:34;6.33;;;5.43;;
4519;SDS011;2272;49.226;8.108;2023-04-25T04:05:02;6.57;;;5.40;;
4519;SDS011;2272;49.226;8.108;2023-04-25T04:07:29;7.30;;;5.10;;
4519;SDS011;2272;49.226;8.108;2023-04-25T04:09:57;5.57;;;5.07;;
4519;SDS011;2272;49.226;8.108;2023-04-25T04:12:24;4.90;;;4.60;;
4519;SDS011;2272;49.226;8.108;2023-04-25T04:14:52;4.83;;;4.43;;
4519;SDS011;2272;49.226;8.108;2023-04-25T04:17:19;7.30;;;6.60;;
4519;SDS011;2272;49.226;8.108;2023-04-25T04:19:46;6.97;;;5.87;;
4519;SDS011;2272;49.226;8.108;2023-04-25T04:22:12;7.63;;;5.93;;
4519;SDS011;2272;49.226;8.108;2023-04-25T04:24:39;7.60;;;6.27;;
4519;SDS011;2272;49.226;8.108;2023-04-25T04:27:08;8.37;;;7.33;;
4519;SDS011;2272;49.226;8.108;2023-04-25T04:29:37;7.17;;;6.47;;
4519;SDS011;2272;49.226;8.108;2023-04-25T04:32:05;7.70;;;6.70;;
4519;SDS011;2272;49.226;8.108;2023-04-25T04:34:44;8.33;;;6.60;;
4519;SDS011;2272;49.226;8.108;2023-04-25T04:37:12;6.23;;;5.73;;
4519;SDS011;2272;49.226;8.108;2023-04-25T04:39:39;9.07;;;6.70;;
4519;SDS011;2272;49.226;8.108;2023-04-25T04:42:06;6.80;;;6.10;;
4519;SDS011;2272;49.226;8.108;2023-04-25T04:44:33;5.20;;;4.70;;
4519;SDS011;2272;49.226;8.108;2023-04-25T04:47:00;5.10;;;4.60;;
4519;SDS011;2272;49.226;8.108;2023-04-25T04:49:30;5.20;;;4.80;;
4519;SDS011;2272;49.226;8.108;2023-04-25T04:51:56;5.97;;;5.37;;
4519;SDS011;2272;49.226;8.108;2023-04-25T04:54:24;6.77;;;6.17;;
4519;SDS011;2272;49.226;8.108;2023-04-25T04:56:52;5.30;;;4.80;;
4519;SDS011;2272;49.226;8.108;2023-04-25T04:59:18;7.67;;;6.97;;
4519;SDS011;2272;49.226;8.108;2023-04-25T05:01:45;7.77;;;6.93;;
4519;SDS011;2272;49.226;8.108;2023-04-25T05:04:12;6.80;;;6.20;;
4519;SDS011;2272;49.226;8.108;2023-04-25T05:06:40;6.30;;;5.73;;
4519;SDS011;2272;49.226;8.108;2023-04-25T05:09:06;7.20;;;6.50;;
4519;SDS011;2272;49.226;8.108;2023-04-25T05:11:33;7.50;;;6.57;;
4519;SDS011;2272;49.226;8.108;2023-04-25T05:14:00;8.30;;;7.47;;
4519;SDS011;2272;49.226;8.108;2023-04-25T05:16:27;8.60;;;7.70;;
4519;SDS011;2272;49.226;8.108;2023-04-25T05:18:53;10.63;;;6.27;;
4519;SDS011;2272;49.226;8.108;2023-04-25T05:21:20;8.40;;;6.30;;
4519;SDS011;2272;49.226;8.108;2023-04-25T05:23:48;6.70;;;6.10;;
4519;SDS011;2272;49.226;8.108;2023-04-25T05:26:15;12.73;;;6.43;;
4519;SDS011;2272;49.226;8.108;2023-04-25T05:28:42;6.40;;;5.80;;
4519;SDS011;2272;49.226;8.108;2023-04-25T05:31:09;5.87;;;5.00;;
4519;SDS011;2272;49.226;8.108;2023-04-25T05:33:36;5.27;;;4.77;;
4519;SDS011;2272;49.226;8.108;2023-04-25T05:36:03;8.70;;;7.03;;
4519;SDS011;2272;49.226;8.108;2023-04-25T05:38:30;6.57;;;5.97;;
4519;SDS011;2272;49.226;8.108;2023-04-25T05:40:58;9.70;;;6.47;;
4519;SDS011;2272;49.226;8.108;2023-04-25T05:43:25;6.17;;;5.57;;
4519;SDS011;2272;49.226;8.108;2023-04-25T05:45:51;7.17;;;6.43;;
4519;SDS011;2272;49.226;8.108;2023-04-25T05:48:18;6.60;;;6.00;;
4519;SDS011;2272;49.226;8.108;2023-04-25T05:50:45;8.43;;;7.53;;
4519;SDS011;2272;49.226;8.108;2023-04-25T05:53:11;9.30;;;8.20;;
4519;SDS011;2272;49.226;8.108;2023-04-25T05:55:38;11.70;;;9.43;;
4519;SDS011;2272;49.226;8.108;2023-04-25T05:58:06;11.47;;;9.30;;
4519;SDS011;2272;49.226;8.108;2023-04-25T06:00:33;18.50;;;9.77;;
4519;SDS011;2272;49.226;8.108;2023-04-25T06:03:00;14.27;;;9.53;;
4519;SDS011;2272;49.226;8.108;2023-04-25T06:05:27;13.70;;;10.00;;
4519;SDS011;2272;49.226;8.108;2023-04-25T06:07:53;14.13;;;10.03;;
4519;SDS011;2272;49.226;8.108;2023-04-25T06:10:20;10.57;;;9.40;;
4519;SDS011;2272;49.226;8.108;2023-04-25T06:12:47;10.13;;;9.23;;
4519;SDS011;2272;49.226;8.108;2023-04-25T06:15:16;12.57;;;9.80;;
4519;SDS011;2272;49.226;8.108;2023-04-25T06:17:42;11.43;;;8.50;;
4519;SDS011;2272;49.226;8.108;2023-04-25T06:20:09;9.77;;;8.77;;
4519;SDS011;2272;49.226;8.108;2023-04-25T06:22:36;13.73;;;8.53;;
4519;SDS011;2272;49.226;8.108;2023-04-25T06:25:03;10.97;;;9.77;;
4519;SDS011;2272;49.226;8.108;2023-04-25T06:27:32;11.23;;;10.07;;
4519;SDS011;2272;49.226;8.108;2023-04-25T06:29:58;9.60;;;8.70;;
4519;SDS011;2272;49.226;8.108;2023-04-25T06:32:26;9.10;;;8.17;;
4519;SDS011;2272;49.226;8.108;2023-04-25T06:34:54;11.97;;;9.00;;
4519;SDS011;2272;49.226;8.108;2023-04-25T06:37:21;8.57;;;7.77;;
4519;SDS011;2272;49.226;8.108;2023-04-25T06:39:48;7.90;;;7.13;;
4519;SDS011;2272;49.226;8.108;2023-04-25T06:42:15;10.10;;;7.50;;
4519;SDS011;2272;49.226;8.108;2023-04-25T06:44:41;9.33;;;7.10;;
4519;SDS011;2272;49.226;8.108;2023-04-25T06:47:08;12.37;;;9.73;;
4519;SDS011;2272;49.226;8.108;2023-04-25T06:49:36;10.10;;;9.03;;
4519;SDS011;2272;49.226;8.108;2023-04-25T06:52:03;9.40;;;8.30;;
4519;SDS011;2272;49.226;8.108;2023-04-25T06:54:29;9.20;;;8.33;;
4519;SDS011;2272;49.226;8.108;2023-04-25T06:56:56;8.00;;;7.20;;
4519;SDS011;2272;49.226;8.108;2023-04-25T06:59:23;8.40;;;7.60;;
4519;SDS011;2272;49.226;8.108;2023-04-25T07:01:49;7.30;;;6.60;;
4519;SDS011;2272;49.226;8.108;2023-04-25T07:04:16;6.90;;;6.20;;
4519;SDS011;2272;49.226;8.108;2023-04-25T07:06:44;9.90;;;7.17;;
4519;SDS011;2272;49.226;8.108;2023-04-25T07:09:12;6.60;;;5.93;;
4519;SDS011;2272;49.226;8.108;2023-04-25T07:11:39;7.00;;;5.93;;
4519;SDS011;2272;49.226;8.108;2023-04-25T07:14:06;6.57;;;5.97;;
4519;SDS011;2272;49.226;8.108;2023-04-25T07:16:32;7.93;;;5.83;;
4519;SDS011;2272;49.226;8.108;2023-04-25T07:18:59;7.70;;;6.10;;
4519;SDS011;2272;49.226;8.108;2023-04-25T07:21:25;7.73;;;6.87;;
4519;SDS011;2272;49.226;8.108;2023-04-25T07:23:53;6.33;;;5.83;;
4519;SDS011;2272;49.226;8.108;2023-04-25T07:26:20;6.20;;;5.60;;
4519;SDS011;2272;49.226;8.108;2023-04-25T07:28:47;8.07;;;5.90;;
4519;SDS011;2272;49.226;8.108;2023-04-25T07:31:15;7.27;;;6.10;;
4519;SDS011;2272;49.226;8.108;2023-04-25T07:33:43;6.67;;;6.00;;
4519;SDS011;2272;49.226;8.108;2023-04-25T07:36:09;7.00;;;5.30;;
4519;SDS011;2272;49.226;8.108;2023-04-25T07:38:37;7.27;;;6.10;;
4519;SDS011;2272;49.226;8.108;2023-04-25T07:41:05;7.60;;;6.80;;
4519;SDS011;2272;49.226;8.108;2023-04-25T07:43:32;8.30;;;6.20;;
4519;SDS011;2272;49.226;8.108;2023-04-25T07:45:58;7.03;;;6.43;;
4519;SDS011;2272;49.226;8.108;2023-04-25T07:48:25;6.93;;;6.30;;
4519;SDS011;2272;49.226;8.108;2023-04-25T07:50:52;6.57;;;5.17;;
4519;SDS011;2272;49.226;8.108;2023-04-25T07:53:18;6.93;;;6.23;;
4519;SDS011;2272;49.226;8.108;2023-04-25T07:55:45;9.33;;;6.17;;
4519;SDS011;2272;49.226;8.108;2023-04-25T07:58:13;6.70;;;6.10;;
4519;SDS011;2272;49.226;8.108;2023-04-25T08:00:40;7.00;;;6.30;;
4519;SDS011;2272;49.226;8.108;2023-04-25T08:03:08;7.30;;;6.57;;
4519;SDS011;2272;49.226;8.108;2023-04-25T08:05:35;6.60;;;6.00;;
4519;SDS011;2272;49.226;8.108;2023-04-25T08:08:02;7.63;;;6.90;;
4519;SDS011;2272;49.226;8.108;2023-04-25T08:10:31;6.63;;;6.00;;
4519;SDS011;2272;49.226;8.108;2023-04-25T08:12:58;9.93;;;7.37;;
4519;SDS011;2272;49.226;8.108;2023-04-25T08:15:26;8.00;;;7.20;;
4519;SDS011;2272;49.226;8.108;2023-04-25T08:17:52;11.83;;;7.73;;
4519;SDS011;2272;49.226;8.108;2023-04-25T08:20:19;12.33;;;7.10;;
4519;SDS011;2272;49.226;8.108;2023-04-25T08:22:46;12.97;;;6.87;;
4519;SDS011;2272;49.226;8.108;2023-04-25T08:25:13;7.13;;;6.50;;
4519;SDS011;2272;49.226;8.108;2023-04-25T08:27:40;14.13;;;8.70;;
4519;SDS011;2272;49.226;8.108;2023-04-25T08:30:07;10.50;;;7.70;;
4519;SDS011;2272;49.226;8.108;2023-04-25T08:32:36;12.23;;;8.60;;
4519;SDS011;2272;49.226;8.108;2023-04-25T08:35:04;17.83;;;9.53;;
4519;SDS011;2272;49.226;8.108;2023-04-25T08:37:31;14.10;;;8.60;;
4519;SDS011;2272;49.226;8.108;2023-04-25T08:39:58;13.43;;;9.03;;
4519;SDS011;2272;49.226;8.108;2023-04-25T08:42:26;17.30;;;8.97;;
4519;SDS011;2272;49.226;8.108;2023-04-25T08:44:54;16.77;;;9.10;;
4519;SDS011;2272;49.226;8.108;2023-04-25T08:47:21;12.67;;;8.83;;
4519;SDS011;2272;49.226;8.108;2023-04-25T08:49:50;25.73;;;9.60;;
4519;SDS011;2272;49.226;8.108;2023-04-25T08:52:21;14.93;;;9.17;;
4519;SDS011;2272;49.226;8.108;2023-04-25T08:54:48;13.87;;;9.47;;
4519;SDS011;2272;49.226;8.108;2023-04-25T08:57:17;17.33;;;8.47;;
4519;SDS011;2272;49.226;8.108;2023-04-25T08:59:45;27.17;;;10.10;;
4519;SDS011;2272;49.226;8.108;2023-04-25T09:02:13;19.77;;;7.40;;
4519;SDS011;2272;49.226;8.108;2023-04-25T09:04:42;13.53;;;7.70;;
4519;SDS011;2272;49.226;8.108;2023-04-25T09:07:11;32.80;;;9.07;;
4519;SDS011;2272;49.226;8.108;2023-04-25T09:09:40;14.00;;;7.00;;
4519;SDS011;2272;49.226;8.108;2023-04-25T09:12:07;12.20;;;7.23;;
4519;SDS011;2272;49.226;8.108;2023-04-25T09:14:34;13.67;;;7.53;;
4519;SDS011;2272;49.226;8.108;2023-04-25T09:17:01;11.50;;;7.60;;
4519;SDS011;2272;49.226;8.108;2023-04-25T09:19:30;19.17;;;7.33;;
4519;SDS011;2272;49.226;8.108;2023-04-25T09:21:58;20.40;;;8.10;;
4519;SDS011;2272;49.226;8.108;2023-04-25T09:24:34;25.53;;;8.97;;
4519;SDS011;2272;49.226;8.108;2023-04-25T09:27:04;12.00;;;7.57;;
4519;SDS011;2272;49.226;8.108;2023-04-25T09:29:33;16.53;;;7.93;;
4519;SDS011;2272;49.226;8.108;2023-04-25T09:32:10;18.40;;;8.97;;
4519;SDS011;2272;49.226;8.108;2023-04-25T09:34:42;17.70;;;10.10;;
4519;SDS011;2272;49.226;8.108;2023-04-25T09:37:16;15.63;;;8.50;;
4519;SDS011;2272;49.226;8.108;2023-04-25T09:39:47;14.60;;;6.77;;
4519;SDS011;2272;49.226;8.108;2023-04-25T09:42:14;16.13;;;8.30;;
4519;SDS011;2272;49.226;8.108;2023-04-25T09:44:42;18.40;;;9.40;;
4519;SDS011;2272;49.226;8.108;2023-04-25T09:47:10;17.27;;;9.10;;
4519;SDS011;2272;49.226;8.108;2023-04-25T09:49:38;13.77;;;8.10;;
4519;SDS011;2272;49.226;8.108;2023-04-25T09:52:07;12.17;;;8.50;;
4519;SDS011;2272;49.226;8.108;2023-04-25T09:54:34;12.23;;;7.83;;
4519;SDS011;2272;49.226;8.108;2023-04-25T09:57:03;14.37;;;8.10;;
4519;SDS011;2272;49.226;8.108;2023-04-25T09:59:38;12.20;;;7.90;;
4519;SDS011;2272;49.226;8.108;2023-04-25T10:02:06;19.10;;;7.90;;
4519;SDS011;2272;49.226;8.108;2023-04-25T10:04:35;10.70;;;6.70;;
4519;SDS011;2272;49.226;8.108;2023-04-25T10:07:03;13.90;;;7.20;;
4519;SDS011;2272;49.226;8.108;2023-04-25T10:09:32;11.73;;;7.27;;
4519;SDS011;2272;49.226;8.108;2023-04-25T10:12:00;16.10;;;7.57;;
4519;SDS011;2272;49.226;8.108;2023-04-25T10:14:28;12.00;;;6.83;;
4519;SDS011;2272;49.226;8.108;2023-04-25T10:16:55;14.30;;;7.30;;
4519;SDS011;2272;49.226;8.108;2023-04-25T10:19:24;17.10;;;7.93;;
4519;SDS011;2272;49.226;8.108;2023-04-25T10:21:52;7.97;;;7.17;;
4519;SDS011;2272;49.226;8.108;2023-04-25T10:24:22;21.97;;;9.10;;
4519;SDS011;2272;49.226;8.108;2023-04-25T10:26:50;10.87;;;8.00;;
4519;SDS011;2272;49.226;8.108;2023-04-25T10:29:23;10.37;;;5.40;;
4519;SDS011;2272;49.226;8.108;2023-04-25T10:31:52;4.30;;;4.00;;
4519;SDS011;2272;49.226;8.108;2023-04-25T10:34:23;4.10;;;3.70;;
4519;SDS011;2272;49.226;8.108;2023-04-25T10:36:51;4.77;;;4.33;;
4519;SDS011;2272;49.226;8.108;2023-04-25T10:39:22;5.40;;;4.13;;
4519;SDS011;2272;49.226;8.108;2023-04-25T10:41:53;3.30;;;3.10;;
4519;SDS011;2272;49.226;8.108;2023-04-25T10:44:21;5.17;;;4.07;;
4519;SDS011;2272;49.226;8.108;2023-04-25T10:46:48;3.07;;;2.87;;
4519;SDS011;2272;49.226;8.108;2023-04-25T10:49:32;3.17;;;2.97;;
4519;SDS011;2272;49.226;8.108;2023-04-25T10:52:13;7.80;;;2.87;;
4519;SDS011;2272;49.226;8.108;2023-04-25T10:54:47;2.70;;;2.33;;
4519;SDS011;2272;49.226;8.108;2023-04-25T10:57:30;2.83;;;2.63;;
4519;SDS011;2272;49.226;8.108;2023-04-25T11:00:05;2.83;;;2.63;;
4519;SDS011;2272;49.226;8.108;2023-04-25T11:02:38;9.00;;;3.40;;
4519;SDS011;2272;49.226;8.108;2023-04-25T11:05:09;4.67;;;3.70;;
4519;SDS011;2272;49.226;8.108;2023-04-25T11:07:43;3.90;;;3.70;;
4519;SDS011;2272;49.226;8.108;2023-04-25T11:10:15;3.53;;;3.23;;
4519;SDS011;2272;49.226;8.108;2023-04-25T11:12:42;6.73;;;3.70;;
4519;SDS011;2272;49.226;8.108;2023-04-25T11:15:08;3.83;;;3.53;;
4519;SDS011;2272;49.226;8.108;2023-04-25T11:17:35;7.50;;;2.93;;
4519;SDS011;2272;49.226;8.108;2023-04-25T11:20:04;3.60;;;3.13;;
4519;SDS011;2272;49.226;8.108;2023-04-25T11:22:37;3.43;;;3.13;;
4519;SDS011;2272;49.226;8.108;2023-04-25T11:25:05;5.30;;;4.13;;
4519;SDS011;2272;49.226;8.108;2023-04-25T11:27:33;4.53;;;4.10;;
4519;SDS011;2272;49.226;8.108;2023-04-25T11:30:09;4.70;;;3.77;;
4519;SDS011;2272;49.226;8.108;2023-04-25T11:32:36;18.67;;;4.33;;
4519;SDS011;2272;49.226;8.108;2023-04-25T11:35:05;5.07;;;3.20;;
4519;SDS011;2272;49.226;8.108;2023-04-25T11:37:32;3.43;;;3.23;;
4519;SDS011;2272;49.226;8.108;2023-04-25T11:40:01;3.67;;;3.00;;
4519;SDS011;2272;49.226;8.108;2023-04-25T11:42:31;3.07;;;2.87;;
4519;SDS011;2272;49.226;8.108;2023-04-25T11:44:58;4.07;;;3.07;;
4519;SDS011;2272;49.226;8.108;2023-04-25T11:47:27;3.47;;;3.17;;
4519;SDS011;2272;49.226;8.108;2023-04-25T11:49:55;6.13;;;3.50;;
4519;SDS011;2272;49.226;8.108;2023-04-25T11:52:21;3.63;;;3.33;;
4519;SDS011;2272;49.226;8.108;2023-04-25T11:54:48;4.73;;;3.90;;
4519;SDS011;2272;49.226;8.108;2023-04-25T11:57:16;3.40;;;3.07;;
4519;SDS011;2272;49.226;8.108;2023-04-25T11:59:45;5.33;;;4.10;;
4519;SDS011;2272;49.226;8.108;2023-04-25T12:02:23;4.30;;;3.90;;
4519;SDS011;2272;49.226;8.108;2023-04-25T12:04:51;7.43;;;3.87;;
4519;SDS011;2272;49.226;8.108;2023-04-25T12:07:18;6.00;;;4.50;;
4519;SDS011;2272;49.226;8.108;2023-04-25T12:09:50;3.77;;;3.47;;
4519;SDS011;2272;49.226;8.108;2023-04-25T12:12:19;3.73;;;3.40;;
4519;SDS011;2272;49.226;8.108;2023-04-25T12:14:46;7.13;;;3.90;;
4519;SDS011;2272;49.226;8.108;2023-04-25T12:17:14;7.87;;;3.63;;
4519;SDS011;2272;49.226;8.108;2023-04-25T12:19:40;10.80;;;4.03;;
4519;SDS011;2272;49.226;8.108;2023-04-25T12:22:18;3.23;;;2.93;;
4519;SDS011;2272;49.226;8.108;2023-04-25T12:24:46;3.23;;;2.90;;
4519;SDS011;2272;49.226;8.108;2023-04-25T12:27:14;6.50;;;3.57;;
4519;SDS011;2272;49.226;8.108;2023-04-25T12:29:51;5.90;;;3.80;;
4519;SDS011;2272;49.226;8.108;2023-04-25T12:32:19;12.40;;;4.40;;
4519;SDS011;2272;49.226;8.108;2023-04-25T12:34:46;3.90;;;3.43;;
4519;SDS011;2272;49.226;8.108;2023-04-25T12:37:12;4.40;;;3.80;;
4519;SDS011;2272;49.226;8.108;2023-04-25T12:39:39;5.27;;;3.87;;
4519;SDS011;2272;49.226;8.108;2023-04-25T12:42:06;5.90;;;3.27;;
4519;SDS011;2272;49.226;8.108;2023-04-25T12:44:36;5.20;;;3.33;;
4519;SDS011;2272;49.226;8.108;2023-04-25T12:47:04;7.50;;;3.40;;
4519;SDS011;2272;49.226;8.108;2023-04-25T12:49:31;3.60;;;3.30;;
4519;SDS011;2272;49.226;8.108;2023-04-25T12:51:59;3.30;;;3.10;;
4519;SDS011;2272;49.226;8.108;2023-04-25T12:54:26;4.03;;;3.67;;
4519;SDS011;2272;49.226;8.108;2023-04-25T12:56:52;5.70;;;3.97;;
4519;SDS011;2272;49.226;8.108;2023-04-25T12:59:19;3.10;;;2.90;;
4519;SDS011;2272;49.226;8.108;2023-04-25T13:01:46;3.13;;;2.93;;
4519;SDS011;2272;49.226;8.108;2023-04-25T13:04:14;7.03;;;3.60;;
4519;SDS011;2272;49.226;8.108;2023-04-25T13:06:42;5.27;;;3.20;;
4519;SDS011;2272;49.226;8.108;2023-04-25T13:09:09;5.97;;;3.37;;
4519;SDS011;2272;49.226;8.108;2023-04-25T13:11:37;3.37;;;3.17;;
4519;SDS011;2272;49.226;8.108;2023-04-25T13:14:04;3.57;;;2.40;;
4519;SDS011;2272;49.226;8.108;2023-04-25T13:16:31;6.70;;;2.60;;
4519;SDS011;2272;49.226;8.108;2023-04-25T13:18:58;2.83;;;2.63;;
4519;SDS011;2272;49.226;8.108;2023-04-25T13:21:26;3.70;;;3.40;;
4519;SDS011;2272;49.226;8.108;2023-04-25T13:23:53;7.23;;;3.27;;
4519;SDS011;2272;49.226;8.108;2023-04-25T13:26:19;9.10;;;3.77;;
4519;SDS011;2272;49.226;8.108;2023-04-25T13:28:46;5.50;;;4.00;;
4519;SDS011;2272;49.226;8.108;2023-04-25T13:31:13;4.57;;;4.10;;
4519;SDS011;2272;49.226;8.108;2023-04-25T13:33:40;6.90;;;4.43;;
4519;SDS011;2272;49.226;8.108;2023-04-25T13:36:06;5.37;;;3.40;;
4519;SDS011;2272;49.226;8.108;2023-04-25T13:38:34;5.73;;;3.63;;
4519;SDS011;2272;49.226;8.108;2023-04-25T13:41:01;3.50;;;3.03;;
4519;SDS011;2272;49.226;8.108;2023-04-25T13:43:28;2.10;;;2.00;;
4519;SDS011;2272;49.226;8.108;2023-04-25T13:45:55;2.50;;;2.30;;
4519;SDS011;2272;49.226;8.108;2023-04-25T13:48:21;2.27;;;2.17;;
4519;SDS011;2272;49.226;8.108;2023-04-25T13:50:48;2.27;;;2.17;;
4519;SDS011;2272;49.226;8.108;2023-04-25T13:53:15;3.10;;;2.90;;
4519;SDS011;2272;49.226;8.108;2023-04-25T13:55:43;10.70;;;5.80;;
4519;SDS011;2272;49.226;8.108;2023-04-25T13:58:10;9.03;;;4.83;;
4519;SDS011;2272;49.226;8.108;2023-04-25T14:00:37;10.77;;;5.10;;
4519;SDS011;2272;49.226;8.108;2023-04-25T14:03:05;6.80;;;4.47;;
4519;SDS011;2272;49.226;8.108;2023-04-25T14:05:33;13.47;;;6.17;;
4519;SDS011;2272;49.226;8.108;2023-04-25T14:08:03;6.00;;;5.40;;
4519;SDS011;2272;49.226;8.108;2023-04-25T14:10:30;10.40;;;5.60;;
4519;SDS011;2272;49.226;8.108;2023-04-25T14:12:58;12.53;;;5.63;;
4519;SDS011;2272;49.226;8.108;2023-04-25T14:15:26;13.23;;;5.40;;
4519;SDS011;2272;49.226;8.108;2023-04-25T14:17:52;4.97;;;4.57;;
4519;SDS011;2272;49.226;8.108;2023-04-25T14:20:20;7.50;;;5.40;;
4519;SDS011;2272;49.226;8.108;2023-04-25T14:22:48;7.40;;;5.73;;
4519;SDS011;2272;49.226;8.108;2023-04-25T14:25:15;8.37;;;5.57;;
4519;SDS011;2272;49.226;8.108;2023-04-25T14:27:42;4.67;;;4.23;;
4519;SDS011;2272;49.226;8.108;2023-04-25T14:30:13;5.30;;;4.90;;
4519;SDS011;2272;49.226;8.108;2023-04-25T14:32:40;7.97;;;4.87;;
4519;SDS011;2272;49.226;8.108;2023-04-25T14:35:07;7.33;;;5.40;;
4519;SDS011;2272;49.226;8.108;2023-04-25T14:37:35;5.23;;;4.73;;
4519;SDS011;2272;49.226;8.108;2023-04-25T14:40:02;9.47;;;4.00;;
4519;SDS011;2272;49.226;8.108;2023-04-25T14:42:29;7.73;;;5.83;;
4519;SDS011;2272;49.226;8.108;2023-04-25T14:44:57;5.97;;;5.37;;
4519;SDS011;2272;49.226;8.108;2023-04-25T14:47:25;5.13;;;4.63;;
4519;SDS011;2272;49.226;8.108;2023-04-25T14:49:51;8.00;;;5.30;;
4519;SDS011;2272;49.226;8.108;2023-04-25T14:52:19;5.67;;;5.17;;
4519;SDS011;2272;49.226;8.108;2023-04-25T14:54:46;7.13;;;5.13;;
4519;SDS011;2272;49.226;8.108;2023-04-25T14:57:12;4.40;;;3.90;;
4519;SDS011;2272;49.226;8.108;2023-04-25T14:59:40;4.87;;;4.47;;
4519;SDS011;2272;49.226;8.108;2023-04-25T15:02:07;8.83;;;4.00;;
4519;SDS011;2272;49.226;8.108;2023-04-25T15:04:35;5.77;;;4.80;;
4519;SDS011;2272;49.226;8.108;2023-04-25T15:07:02;6.73;;;5.20;;
4519;SDS011;2272;49.226;8.108;2023-04-25T15:09:29;10.47;;;4.67;;
4519;SDS011;2272;49.226;8.108;2023-04-25T15:11:56;5.40;;;4.67;;
4519;SDS011;2272;49.226;8.108;2023-04-25T15:14:23;5.30;;;4.80;;
4519;SDS011;2272;49.226;8.108;2023-04-25T15:16:50;5.43;;;4.40;;